Thunder radar more information blitzortung!


Löydät sääaseman tiedot myös:

European Weather Network

Finland Weather Exchange

Weather Underground

AWEKAS



Weather Underground säähistoriasivu

Päivittäin yhteenveto Huhtikuu 8, 2017 Yksiköt:  Englantilaiset    Metriset   Molemmat
« Edellinen Päivä
Seuraava Päivä »
Päivittäin Viikoittain Kuukausittain Vuosittain Mukautettu
  Korkea: Matala: Keskiarvo:
Lämpötila: TemperatureC °F -3.5 °F 1 °F
Kastepiste: DewpointC °F -7.6 °F -4.6 °F
Kosteus: Humidity % 41 % 68 %
Tuulen nopeus: WindSpeedKMH mph 0.0 mph 0.3 mph
Tuulenpuuska: WindSpeedGustKMH mph - -
Tuuli:- - WNW
Ilmanpaine: PressurehPa in 1011.1 in -
Sade: 0.0 in    
Historical Graphs
 
 
Taulukkotiedot Huhtikuu 8, 2017
Aika Lämpötila Kastepiste Ilmanpaine Tuuli Tuulen nopeus Tuulenpuuska Kosteus Sademäärä (tunneittain)
TemperatureC °F DewpointC °F PressurehPa in Calm     Humidity % HourlyPrecipMM in
00:00 -2.3 °F -6.0 °F 1011.1 in Calm   1.6 mph 76 % 0.0 in
00:15 -2.3 °F -5.8 °F 1011.1 in Calm     77 % 0.0 in
00:30 -2.4 °F -5.9 °F 1011.1 in Calm     77 % 0.0 in
00:45 -2.7 °F -6.0 °F 1011.1 in Calm     78 % 0.0 in
01:00 -2.8 °F -6.0 °F 1011.1 in Calm     79 % 0.0 in
01:15 -2.9 °F -5.9 °F 1011.1 in Calm     80 % 0.0 in
01:30 -2.9 °F -5.6 °F 1011.1 in Calm     82 % 0.0 in
01:45 -3.1 °F -5.5 °F 1011.1 in Calm     83 % 0.0 in
02:00 -3.3 °F -5.5 °F 1011.1 in Calm     85 % 0.0 in
02:15 -3.4 °F -5.4 °F 1011.1 in Calm     86 % 0.0 in
02:30 -3.4 °F -5.4 °F 1011.1 in Calm     86 % 0.0 in
02:45 -3.4 °F -5.3 °F 1011.1 in Calm     87 % 0.0 in
03:00 -3.5 °F -5.4 °F 1011.1 in Calm     87 % 0.0 in
03:15 -3.5 °F -5.2 °F 1011.1 in Calm     88 % 0.0 in
03:30 -3.5 °F -5.2 °F 1011.1 in Calm     88 % 0.0 in
03:45 -3.3 °F -4.9 °F 1011.1 in Calm     89 % 0.0 in
04:00 -3.2 °F -4.7 °F 1011.1 in Calm     89 % 0.0 in
04:15 -3.0 °F -4.6 °F 1011.4 in Calm     89 % 0.0 in
04:30 -2.8 °F -4.2 °F 1011.1 in Calm     90 % 0.0 in
04:45 -2.6 °F -4.0 °F 1011.1 in Calm     90 % 0.0 in
05:00 -2.4 °F -3.9 °F 1011.1 in Calm     90 % 0.0 in
05:15 -2.3 °F -3.8 °F 1011.1 in Calm     90 % 0.0 in
05:30 -2.3 °F -3.8 °F 1011.1 in Calm     90 % 0.0 in
05:45 -2.2 °F -3.5 °F 1011.1 in Calm     91 % 0.0 in
06:00 -2.1 °F -3.4 °F 1011.4 in Calm     91 % 0.0 in
06:15 -2.0 °F -3.3 °F 1011.4 in Calm     91 % 0.0 in
06:30 -1.9 °F -3.2 °F 1011.4 in Calm     91 % 0.0 in
06:45 -1.8 °F -3.1 °F 1011.7 in Calm     91 % 0.0 in
07:00 -1.7 °F -3.0 °F 1011.7 in Calm   1.6 mph 91 % 0.0 in
07:15 -1.4 °F -2.8 °F 1011.7 in Calm     90 % 0.0 in
07:30 -1.3 °F -2.9 °F 1012.1 in Calm     89 % 0.0 in
07:45 -1.2 °F -2.9 °F 1012.1 in Calm   3.2 mph 88 % 0.0 in
08:00 -1.1 °F -2.8 °F 1012.1 in Calm     88 % 0.0 in
08:15 -1.1 °F -2.8 °F 1012.4 in Calm   1.6 mph 88 % 0.0 in
08:30 -1.1 °F -2.8 °F 1012.4 in Calm     88 % 0.0 in
08:45 -0.9 °F -2.6 °F 1012.4 in Calm   1.6 mph 88 % 0.0 in
09:00 -0.7 °F -2.5 °F 1012.4 in Calm   1.6 mph 88 % 0.0 in
09:15 -0.6 °F -2.6 °F 1012.4 in Calm   4.8 mph 86 % 0.0 in
09:30 -0.3 °F -2.3 °F 1012.8 in Calm   4.8 mph 86 % 0.0 in
09:45 -0.1 °F -2.4 °F 1012.8 in Calm   3.2 mph 84 % 0.0 in
10:00 0.3 °F -2.5 °F 1012.8 in Calm   1.6 mph 81 % 0.0 in
10:15 0.7 °F -2.7 °F 1012.8 in Calm   3.2 mph 78 % 0.0 in
10:30 1.4 °F -2.3 °F 1012.8 in Calm     76 % 0.0 in
10:45 2.0 °F -2.7 °F 1012.8 in Calm   1.6 mph 71 % 0.0 in
11:00 2.6 °F -2.1 °F 1012.8 in Calm   3.2 mph 71 % 0.0 in
11:15 2.8 °F -3.6 °F 1012.8 in NNW 1.6 mph 4.8 mph 63 % 0.0 in
11:30 2.8 °F -4.5 °F 1013.1 in Calm   4.8 mph 59 % 0.0 in
11:45 3.2 °F -3.4 °F 1013.1 in Calm   3.2 mph 62 % 0.0 in
12:00 3.2 °F -3.6 °F 1013.1 in Calm   4.8 mph 61 % 0.0 in
12:15 3.4 °F -4.6 °F 1013.1 in NNE 1.6 mph 6.4 mph 56 % 0.0 in
12:30 3.5 °F -4.0 °F 1013.1 in Calm   4.8 mph 58 % 0.0 in
12:45 3.9 °F -4.5 °F 1013.1 in NW 1.6 mph 8.0 mph 54 % 0.0 in
13:00 4.0 °F -4.7 °F 1013.4 in Calm   8.0 mph 53 % 0.0 in
13:15 4.0 °F -5.8 °F 1013.4 in Calm   3.2 mph 49 % 0.0 in
13:30 4.5 °F -5.0 °F 1013.4 in Calm   4.8 mph 50 % 0.0 in
13:45 4.8 °F -4.5 °F 1013.1 in Calm   8.0 mph 51 % 0.0 in
14:00 4.7 °F -4.9 °F 1013.1 in NW 3.2 mph 11.3 mph 50 % 0.0 in
14:15 4.5 °F -4.5 °F 1013.1 in NW 1.6 mph 8.0 mph 52 % 0.0 in
14:30 4.8 °F -4.3 °F 1013.1 in Calm   4.8 mph 52 % 0.0 in
14:45 4.6 °F -4.9 °F 1013.1 in South 3.2 mph 11.3 mph 50 % 0.0 in
15:00 5.0 °F -6.9 °F 1013.1 in NW 1.6 mph 8.0 mph 42 % 0.0 in
15:15 5.2 °F -7.0 °F 1013.1 in NNW 1.6 mph 9.7 mph 41 % 0.0 in
15:30 5.4 °F -6.8 °F 1013.1 in NW 1.6 mph 9.7 mph 41 % 0.0 in
15:45 5.1 °F -6.8 °F 1013.1 in NW 1.6 mph 6.4 mph 42 % 0.0 in
16:00 5.2 °F -6.4 °F 1012.8 in NW 1.6 mph 8.0 mph 43 % 0.0 in
16:15 5.0 °F -6.3 °F 1012.8 in Calm   4.8 mph 44 % 0.0 in
16:30 4.8 °F -7.4 °F 1012.8 in NW 1.6 mph 6.4 mph 41 % 0.0 in
16:45 4.7 °F -6.0 °F 1012.8 in Calm   1.6 mph 46 % 0.0 in
17:00 4.7 °F -5.7 °F 1012.8 in Calm     47 % 0.0 in
17:15 4.7 °F -6.5 °F 1012.8 in Calm     44 % 0.0 in
17:30 4.7 °F -6.6 °F 1012.8 in Calm     44 % 0.0 in
17:45 4.5 °F -7.6 °F 1012.4 in Calm     41 % 0.0 in
18:00 4.4 °F -5.9 °F 1012.4 in Calm     47 % 0.0 in
18:15 4.4 °F -7.1 °F 1012.4 in Calm   1.6 mph 43 % 0.0 in
18:30 4.4 °F -6.5 °F 1012.4 in Calm     45 % 0.0 in
18:45 4.6 °F -7.6 °F 1012.4 in Calm     41 % 0.0 in
19:00 4.4 °F -7.4 °F 1012.4 in Calm   3.2 mph 42 % 0.0 in
19:15 4.2 °F -5.1 °F 1012.4 in Calm   1.6 mph 51 % 0.0 in
19:30 3.8 °F -6.2 °F 1012.1 in Calm     48 % 0.0 in
19:45 3.7 °F -5.2 °F 1012.4 in Calm     52 % 0.0 in
20:00 3.6 °F -5.1 °F 1012.4 in Calm     53 % 0.0 in
20:15 3.3 °F -5.9 °F 1012.4 in Calm     51 % 0.0 in
20:45 2.6 °F -5.1 °F 1012.4 in Calm     57 % 0.0 in
21:00 2.4 °F -5.0 °F 1012.4 in Calm     58 % 0.0 in
21:15 2.4 °F -4.6 °F 1012.4 in SW 1.6 mph 6.4 mph 60 % 0.0 in
21:30 2.3 °F -4.3 °F 1012.4 in Calm   1.6 mph 62 % 0.0 in
21:45 2.2 °F -3.9 °F 1012.4 in Calm     64 % 0.0 in
22:00 2.0 °F -4.1 °F 1012.1 in Calm     64 % 0.0 in
22:15 1.8 °F -3.7 °F 1012.1 in Calm     67 % 0.0 in
22:30 1.6 °F -3.9 °F 1012.1 in Calm     67 % 0.0 in
22:45 1.3 °F -3.5 °F 1012.1 in Calm     70 % 0.0 in
23:00 1.1 °F -3.6 °F 1011.7 in Calm     71 % 0.0 in
23:15 0.9 °F -3.6 °F 1011.7 in Calm   3.2 mph 72 % 0.0 in
23:30 0.8 °F -3.5 °F 1011.4 in Calm   3.2 mph 73 % 0.0 in
23:45 1.0 °F -2.9 °F 1011.1 in Calm     75 % 0.0 in
Esan sääasema
Terveisin Weather Underground - 2.75 mb

Alkuperäinen skripti  Jim McMurry - jmcmurry@mwt.net Sovitettu myös templatelle  Wim van der Kuil - Leuven-Template.eu

Laitteet joita käytämme:

Sääasema
Davis VP2

Sääasemaohjelma
Cumulus

Sääaseman tietokone
Asus EeePC

Palveluntarjoaja
Suncomet

Davis VP2

Cumulus

Asus EeePC

Suncomet